createdAt,value
2018-08-09T00:00:08.903Z,9.07
2018-08-09T00:02:37.825Z,9.57
2018-08-09T00:05:06.447Z,8.10
2018-08-09T00:07:36.957Z,9.47
2018-08-09T00:10:07.809Z,10.27
2018-08-09T00:12:36.882Z,9.00
2018-08-09T00:15:05.893Z,8.80
2018-08-09T00:17:34.620Z,8.97
2018-08-09T00:20:03.298Z,8.90
2018-08-09T00:22:31.892Z,9.67
2018-08-09T00:25:00.431Z,9.47
2018-08-09T00:27:33.921Z,8.00
2018-08-09T00:30:02.643Z,8.37
2018-08-09T00:32:31.675Z,9.87
2018-08-09T00:35:00.285Z,9.23
2018-08-09T00:37:28.817Z,8.87
2018-08-09T00:39:57.413Z,9.50
2018-08-09T00:42:26.280Z,10.47
2018-08-09T00:44:55.235Z,9.20
2018-08-09T00:47:24.217Z,10.90
2018-08-09T00:49:52.797Z,9.20
2018-08-09T00:52:21.363Z,10.53
2018-08-09T00:54:49.961Z,9.97
2018-08-09T00:57:18.513Z,9.33
2018-08-09T00:59:47.136Z,10.33
2018-08-09T01:02:15.667Z,10.20
2018-08-09T01:04:44.261Z,9.10
2018-08-09T01:07:17.413Z,9.57
2018-08-09T01:09:45.980Z,12.50
2018-08-09T01:12:14.572Z,10.00
2018-08-09T01:14:43.179Z,10.07
2018-08-09T01:17:12.058Z,10.67
2018-08-09T01:19:41.008Z,11.80
2018-08-09T01:22:09.580Z,10.13
2018-08-09T01:24:38.116Z,15.27
2018-08-09T01:27:08.828Z,10.33
2018-08-09T01:29:40.347Z,8.30
2018-08-09T01:32:10.040Z,8.60
2018-08-09T01:34:38.605Z,10.00
2018-08-09T01:37:07.759Z,10.03
2018-08-09T01:39:36.356Z,9.50
2018-08-09T01:44:20.588Z,9.70
2018-08-09T01:46:49.243Z,10.30
2018-08-09T01:49:18.330Z,10.23
2018-08-09T01:51:46.937Z,10.20
2018-08-09T01:54:15.729Z,11.40
2018-08-09T01:56:44.288Z,11.23
2018-08-09T01:59:12.883Z,9.70
2018-08-09T02:01:41.508Z,10.13
2018-08-09T02:04:10.244Z,9.40
2018-08-09T02:06:39.674Z,10.53
2018-08-09T02:09:12.413Z,10.10
2018-08-09T02:11:41.080Z,9.43
2018-08-09T02:14:09.618Z,11.20
2018-08-09T02:16:38.493Z,8.53
2018-08-09T02:19:07.885Z,9.40
2018-08-09T02:21:36.595Z,8.50
2018-08-09T02:24:05.565Z,11.43
2018-08-09T02:26:34.155Z,9.00
2018-08-09T02:29:02.730Z,11.47
2018-08-09T02:31:32.303Z,9.70
2018-08-09T02:34:00.872Z,10.00
2018-08-09T02:36:29.526Z,8.67
2018-08-09T02:38:58.218Z,9.87
2018-08-09T02:41:27.025Z,7.70
2018-08-09T02:43:55.670Z,9.97
2018-08-09T02:46:24.299Z,15.20
2018-08-09T02:48:53.040Z,8.77
2018-08-09T02:51:21.637Z,8.87
2018-08-09T02:53:50.299Z,10.10
2018-08-09T02:56:19.004Z,9.30
2018-08-09T02:58:47.591Z,8.57
2018-08-09T03:01:16.581Z,10.40
2018-08-09T03:03:45.167Z,11.53
2018-08-09T03:06:13.729Z,9.23
2018-08-09T03:08:42.356Z,18.97
2018-08-09T03:11:11.078Z,7.23
2018-08-09T03:13:39.753Z,8.90
2018-08-09T03:16:08.332Z,9.17
2018-08-09T03:18:36.931Z,9.63
2018-08-09T03:21:05.563Z,10.63
2018-08-09T03:23:34.455Z,12.10
2018-08-09T03:26:03.080Z,9.20
2018-08-09T03:28:31.799Z,8.80
2018-08-09T03:31:00.529Z,8.60
2018-08-09T03:33:29.049Z,9.20
2018-08-09T03:35:57.611Z,8.23
2018-08-09T03:38:26.511Z,9.30
2018-08-09T03:40:55.164Z,15.10
2018-08-09T03:43:23.739Z,21.43
2018-08-09T03:45:52.343Z,9.70
2018-08-09T03:48:20.915Z,8.87
2018-08-09T03:50:49.509Z,10.10
2018-08-09T03:53:18.138Z,9.23
2018-08-09T03:55:46.912Z,10.53
2018-08-09T03:58:15.647Z,9.37
2018-08-09T04:00:44.294Z,9.00
2018-08-09T04:03:14.087Z,11.03
2018-08-09T04:05:42.733Z,12.93
2018-08-09T04:11:02.955Z,10.40
2018-08-09T04:13:40.184Z,11.27
2018-08-09T04:16:09.123Z,9.97
2018-08-09T04:18:37.863Z,10.23
2018-08-09T04:21:06.436Z,8.30
2018-08-09T04:23:35.059Z,8.47
2018-08-09T04:26:03.636Z,8.20
2018-08-09T04:28:32.200Z,8.77
2018-08-09T04:31:01.077Z,8.60
2018-08-09T04:33:29.656Z,9.33
2018-08-09T04:35:58.609Z,11.53
2018-08-09T04:38:27.173Z,9.37
2018-08-09T04:40:55.760Z,11.03
2018-08-09T04:43:24.335Z,10.03
2018-08-09T05:02:54.889Z,9.10
2018-08-09T05:05:23.464Z,10.23
2018-08-09T05:07:52.036Z,8.73
2018-08-09T05:10:20.680Z,8.77
2018-08-09T05:12:49.249Z,9.77
2018-08-09T05:15:17.843Z,8.47
2018-08-09T05:17:46.397Z,8.17
2018-08-09T05:20:14.974Z,8.70
2018-08-09T05:22:43.520Z,8.00
2018-08-09T05:30:08.648Z,8.10
2018-08-09T05:32:37.195Z,10.43
2018-08-09T05:35:06.053Z,8.40
2018-08-09T05:37:34.679Z,8.70
2018-08-09T05:40:04.065Z,7.50
2018-08-09T05:42:33.448Z,15.43
2018-08-09T06:09:03.126Z,15.80
2018-08-09T06:11:31.760Z,9.60
2018-08-09T06:14:00.482Z,10.10
2018-08-09T06:16:29.025Z,11.47
2018-08-09T06:18:57.729Z,16.00
2018-08-09T06:22:33.089Z,19.73
2018-08-09T06:25:01.974Z,12.27
2018-08-09T06:27:30.545Z,12.23
2018-08-09T06:29:59.156Z,9.67
2018-08-09T06:32:27.796Z,11.97
2018-08-09T06:34:56.379Z,10.10
2018-08-09T06:37:24.962Z,9.23
2018-08-09T06:39:53.731Z,9.40
2018-08-09T06:45:21.095Z,10.00
2018-08-09T06:47:49.644Z,9.77
2018-08-09T06:50:18.243Z,8.80
2018-08-09T06:52:46.904Z,9.13
2018-08-09T06:55:15.588Z,10.00
2018-08-09T06:57:44.237Z,11.17
2018-08-09T07:00:13.639Z,9.93
2018-08-09T07:02:42.518Z,9.10
2018-08-09T07:05:11.284Z,9.83
2018-08-09T07:07:40.621Z,9.87
2018-08-09T07:10:09.896Z,8.67
2018-08-09T07:12:38.542Z,9.37
2018-08-09T07:15:09.960Z,9.77
2018-08-09T07:20:53.300Z,9.20
2018-08-09T07:23:21.856Z,8.17
2018-08-09T07:25:51.564Z,7.80
2018-08-09T07:28:20.263Z,7.47
2018-08-09T07:30:49.463Z,9.77
2018-08-09T07:34:37.298Z,6.20
2018-08-09T07:37:05.925Z,8.23
2018-08-09T07:42:25.033Z,8.40
2018-08-09T07:51:02.586Z,8.70
2018-08-09T07:53:31.357Z,7.97
2018-08-09T07:56:00.733Z,8.03
2018-08-09T07:58:29.311Z,8.50
2018-08-09T08:00:58.045Z,7.90
2018-08-09T08:03:26.603Z,8.37
2018-08-09T08:05:56.163Z,8.60
2018-08-09T08:08:24.846Z,9.50
2018-08-09T08:10:53.419Z,7.47
2018-08-09T08:13:22.016Z,8.63
2018-08-09T08:15:50.641Z,8.17
2018-08-09T08:18:19.180Z,8.47
2018-08-09T08:20:47.873Z,10.93
2018-08-09T08:23:16.460Z,8.97
2018-08-09T08:25:45.227Z,8.67
2018-08-09T08:28:13.783Z,10.60
2018-08-09T08:36:41.452Z,9.77
2018-08-09T08:39:10.871Z,12.63
2018-08-09T08:41:39.910Z,9.70
2018-08-09T08:49:51.486Z,8.63
2018-08-09T08:52:20.135Z,10.53
2018-08-09T09:00:29.499Z,9.90
2018-08-09T09:02:58.077Z,8.70
2018-08-09T09:05:26.662Z,9.40
2018-08-09T09:07:55.309Z,9.87
2018-08-09T09:10:24.512Z,9.80
2018-08-09T09:12:53.142Z,9.87
2018-08-09T09:15:21.716Z,9.10
2018-08-09T09:17:50.286Z,10.73
2018-08-09T09:20:18.927Z,9.67
2018-08-09T09:22:47.536Z,11.00
2018-08-09T09:25:16.139Z,10.90
2018-08-09T10:15:17.387Z,9.90
2018-08-09T10:17:45.968Z,11.63
2018-08-09T10:20:14.651Z,12.70
2018-08-09T10:22:43.203Z,12.50
2018-08-09T10:25:12.123Z,9.97
2018-08-09T10:34:11.533Z,10.70
2018-08-09T10:36:40.415Z,10.03
2018-08-09T11:03:06.161Z,10.27
2018-08-09T11:05:34.948Z,11.13
2018-08-09T11:08:03.610Z,11.73
2018-08-09T11:10:32.160Z,10.17
2018-08-09T11:13:00.728Z,11.10
2018-08-09T11:15:29.392Z,11.27
2018-08-09T11:17:58.016Z,11.03
2018-08-09T11:20:26.621Z,10.97
2018-08-09T11:22:55.224Z,12.57
2018-08-09T11:25:23.823Z,11.27
2018-08-09T11:27:52.367Z,10.90
2018-08-09T11:30:20.928Z,11.30
2018-08-09T11:32:49.474Z,11.53
2018-08-09T11:35:18.059Z,11.73
2018-08-09T11:37:46.588Z,11.43
2018-08-09T11:40:15.163Z,12.50
2018-08-09T11:42:43.923Z,12.10
2018-08-09T11:45:13.004Z,11.50
2018-08-09T11:47:41.615Z,13.20
2018-08-09T12:14:31.712Z,11.00
2018-08-09T12:17:00.517Z,10.93
2018-08-09T12:19:29.119Z,10.80
2018-08-09T12:48:57.084Z,10.37
2018-08-09T12:51:25.743Z,10.70
2018-08-09T12:53:54.417Z,9.80
2018-08-09T12:56:23.294Z,9.30
2018-08-09T13:04:32.883Z,8.63
2018-08-09T13:07:01.456Z,9.60
2018-08-09T13:09:30.099Z,10.73
2018-08-09T13:11:58.740Z,10.17
2018-08-09T13:14:27.568Z,10.70
2018-08-09T13:16:56.166Z,9.67
2018-08-09T13:22:33.274Z,9.57
2018-08-09T13:25:01.845Z,11.20
2018-08-09T13:27:30.547Z,10.47
2018-08-09T13:29:59.997Z,10.20
2018-08-09T13:32:28.594Z,9.57
2018-08-09T13:34:57.272Z,10.20
2018-08-09T13:37:26.333Z,8.43
2018-08-09T13:39:54.885Z,8.43
2018-08-09T13:42:23.472Z,8.73
2018-08-09T13:44:52.067Z,8.23
2018-08-09T13:47:20.757Z,8.63
2018-08-09T13:49:49.395Z,8.90
2018-08-09T13:52:18.044Z,8.63
2018-08-09T13:54:46.624Z,8.40
2018-08-09T13:57:15.271Z,14.97
2018-08-09T13:59:43.894Z,8.37
2018-08-09T14:33:33.136Z,11.43
2018-08-09T14:36:01.809Z,9.40
2018-08-09T14:38:30.394Z,9.00
2018-08-09T14:40:59.062Z,8.43
2018-08-09T14:43:27.791Z,8.03
2018-08-09T14:45:56.450Z,10.43
2018-08-09T14:48:25.313Z,9.30
2018-08-09T14:50:53.952Z,9.30
2018-08-09T14:53:45.259Z,8.47
2018-08-09T14:56:13.823Z,7.10
2018-08-09T14:58:42.522Z,8.23
2018-08-09T15:01:11.160Z,7.90
2018-08-09T15:06:30.424Z,7.90
2018-08-09T15:08:59.104Z,8.90
2018-08-09T15:11:29.038Z,7.97
2018-08-09T15:43:19.187Z,8.60
2018-08-09T15:45:47.757Z,8.20
2018-08-09T15:48:16.487Z,9.50
2018-08-09T15:50:45.083Z,10.67
2018-08-09T15:53:14.048Z,9.73
2018-08-09T16:21:02.294Z,10.20
2018-08-09T16:23:31.059Z,10.00
2018-08-09T16:25:59.692Z,10.00
2018-08-09T16:28:28.349Z,9.20
2018-08-09T16:30:56.989Z,9.70
2018-08-09T16:33:25.558Z,10.60
2018-08-09T16:35:54.152Z,10.77
2018-08-09T16:38:22.789Z,11.37
2018-08-09T16:40:51.391Z,11.20
2018-08-09T16:43:19.992Z,12.70
2018-08-09T16:45:49.127Z,11.37
2018-08-09T16:48:17.816Z,13.20
2018-08-09T16:50:46.431Z,12.50
2018-08-09T16:58:48.732Z,11.77
2018-08-09T17:01:17.338Z,13.30
2018-08-09T17:29:31.048Z,14.20
2018-08-09T17:31:59.699Z,14.73
2018-08-09T17:34:28.325Z,15.87
2018-08-09T17:36:57.090Z,15.53
2018-08-09T17:39:26.034Z,13.77
2018-08-09T17:45:00.511Z,15.73
2018-08-09T17:47:29.308Z,14.60
2018-08-09T17:49:57.939Z,15.50
2018-08-09T17:52:26.550Z,16.47
2018-08-09T17:54:55.138Z,14.20
2018-08-09T17:57:23.813Z,14.97
2018-08-09T17:59:52.426Z,16.30
2018-08-09T18:02:21.046Z,14.63
2018-08-09T18:04:49.843Z,15.30
2018-08-09T18:07:18.472Z,16.20
2018-08-09T18:09:47.064Z,15.10
2018-08-09T18:32:08.118Z,19.47
2018-08-09T18:34:36.825Z,15.80
2018-08-09T18:37:05.427Z,16.10
2018-08-09T18:39:34.123Z,16.53
2018-08-09T18:42:02.804Z,17.47
2018-08-09T18:44:31.564Z,16.87
2018-08-09T18:47:00.183Z,17.87
2018-08-09T18:49:28.762Z,16.97
2018-08-09T18:51:57.830Z,17.70
2018-08-09T18:54:26.405Z,18.50
2018-08-09T18:56:55.020Z,18.63
2018-08-09T18:59:23.676Z,17.53
2018-08-09T19:01:53.310Z,17.20
2018-08-09T19:04:21.988Z,16.23
2018-08-09T19:06:50.695Z,17.50
2018-08-09T19:09:19.581Z,16.63
2018-08-09T19:11:48.188Z,16.77
2018-08-09T19:14:16.905Z,16.70
2018-08-09T19:16:45.485Z,18.33
2018-08-09T19:19:14.151Z,16.40
2018-08-09T19:21:42.810Z,17.77
2018-08-09T19:24:11.404Z,20.80
2018-08-09T19:26:40.231Z,18.07
2018-08-09T19:29:09.088Z,19.20
2018-08-09T19:31:38.060Z,19.53
2018-08-09T19:34:06.949Z,18.40
2018-08-09T19:36:35.777Z,17.67
2018-08-09T19:39:07.642Z,17.60
2018-08-09T19:41:36.291Z,20.43
2018-08-09T19:45:22.712Z,18.77
2018-08-09T19:47:51.397Z,19.60
2018-08-09T19:50:21.758Z,18.47
2018-08-09T19:52:50.456Z,19.20
2018-08-09T19:55:20.672Z,19.73
2018-08-09T19:57:50.021Z,18.87
2018-08-09T20:00:23.567Z,19.50
2018-08-09T20:02:52.225Z,20.00
2018-08-09T20:05:22.675Z,18.60
2018-08-09T20:07:52.404Z,20.53
2018-08-09T20:10:22.097Z,20.83
2018-08-09T20:12:50.804Z,20.57
2018-08-09T20:15:21.040Z,22.80
2018-08-09T20:17:49.767Z,21.63
2018-08-09T20:20:20.001Z,19.80
2018-08-09T20:22:48.762Z,21.23
2018-08-09T20:25:18.377Z,20.50
2018-08-09T20:27:47.664Z,19.60
2018-08-09T20:30:18.349Z,21.30
2018-08-09T20:32:47.589Z,21.53
2018-08-09T20:35:17.689Z,20.67
2018-08-09T20:37:47.088Z,21.20
2018-08-09T20:40:16.664Z,19.63
2018-08-09T20:42:46.547Z,26.57
2018-08-09T20:45:16.535Z,22.70
2018-08-09T20:47:45.491Z,21.53
2018-08-09T20:50:17.489Z,22.47
2018-08-09T20:52:47.345Z,20.33
2018-08-09T20:55:16.958Z,21.80
2018-08-09T20:57:46.449Z,22.87
2018-08-09T21:00:19.627Z,21.37
2018-08-09T21:02:49.697Z,22.87
2018-08-09T21:05:23.743Z,22.33
2018-08-09T21:07:54.348Z,20.17
2018-08-09T21:10:23.388Z,21.00
2018-08-09T21:12:52.011Z,22.23
2018-08-09T21:15:21.231Z,27.13
2018-08-09T21:17:49.827Z,22.20
2018-08-09T21:20:18.458Z,22.97
2018-08-09T21:22:48.025Z,24.67
2018-08-09T21:25:18.000Z,23.33
2018-08-09T21:27:47.326Z,25.30
2018-08-09T21:30:19.552Z,22.90
2018-08-09T21:32:48.967Z,24.90
2018-08-09T21:35:17.693Z,24.47
2018-08-09T21:37:47.140Z,22.10
2018-08-09T21:40:16.285Z,22.77
2018-08-09T21:42:44.941Z,23.80
2018-08-09T22:03:49.420Z,22.97
2018-08-09T22:06:23.206Z,22.97
2018-08-09T22:08:57.601Z,22.57
2018-08-09T22:11:33.704Z,24.80
2018-08-09T22:14:07.383Z,21.47
2018-08-09T22:16:41.107Z,22.87
2018-08-09T22:22:13.595Z,23.27
2018-08-09T22:24:42.341Z,24.20
2018-08-09T22:27:11.664Z,24.23
2018-08-09T22:29:40.286Z,22.67
2018-08-09T22:32:08.906Z,23.57
2018-08-09T22:34:37.489Z,23.53
2018-08-09T22:37:06.070Z,22.43
2018-08-09T22:39:35.083Z,21.70
2018-08-09T22:42:03.715Z,19.23
2018-08-09T22:44:32.302Z,16.10
2018-08-09T22:47:00.853Z,13.43
2018-08-09T22:49:29.600Z,12.70
2018-08-09T22:51:58.285Z,49.87
2018-08-09T22:54:27.362Z,14.80
2018-08-09T22:56:55.940Z,11.27
2018-08-09T22:59:24.575Z,20.67
2018-08-09T23:15:27.820Z,6.87
2018-08-09T23:17:56.391Z,17.13
2018-08-09T23:20:24.974Z,10.83
2018-08-09T23:22:53.669Z,12.30
2018-08-09T23:25:22.389Z,15.83
2018-08-09T23:27:51.030Z,6.90
2018-08-09T23:30:19.779Z,9.63
2018-08-09T23:32:48.332Z,9.27
2018-08-09T23:35:16.935Z,11.17
2018-08-09T23:37:45.567Z,7.83
2018-08-09T23:40:14.216Z,9.43
2018-08-09T23:42:42.796Z,9.60
2018-08-09T23:45:11.809Z,13.57
2018-08-09T23:47:41.438Z,10.30
